createdAt,value
2019-05-16T00:00:52.957Z,9.50
2019-05-16T00:01:52.919Z,9.50
2019-05-16T00:02:52.899Z,9.50
2019-05-16T00:03:52.916Z,9.51
2019-05-16T00:04:52.883Z,9.54
2019-05-16T00:05:54.498Z,9.51
2019-05-16T00:06:52.876Z,9.51
2019-05-16T00:07:52.848Z,9.54
2019-05-16T00:08:52.859Z,9.54
2019-05-16T00:09:52.818Z,9.51
2019-05-16T00:10:52.809Z,9.54
2019-05-16T00:11:52.816Z,9.51
2019-05-16T00:12:52.801Z,9.55
2019-05-16T00:13:52.808Z,9.59
2019-05-16T00:14:52.769Z,9.61
2019-05-16T00:15:52.757Z,9.59
2019-05-16T00:16:52.784Z,9.58
2019-05-16T00:17:52.753Z,9.56
2019-05-16T00:18:52.779Z,9.56
2019-05-16T00:19:52.724Z,9.59
2019-05-16T00:20:52.704Z,9.64
2019-05-16T00:21:52.709Z,9.62
2019-05-16T00:22:52.692Z,9.61
2019-05-16T00:23:52.672Z,9.62
2019-05-16T00:24:52.667Z,9.62
2019-05-16T00:25:52.663Z,9.61
2019-05-16T00:26:52.682Z,9.61
2019-05-16T00:27:52.623Z,9.61
2019-05-16T00:28:52.621Z,9.59
2019-05-16T00:29:52.650Z,9.59
2019-05-16T00:30:52.610Z,9.59
2019-05-16T00:31:52.620Z,9.62
2019-05-16T00:32:52.588Z,9.62
2019-05-16T00:33:52.560Z,9.62
2019-05-16T00:34:52.550Z,9.59
2019-05-16T00:36:02.600Z,9.58
2019-05-16T00:36:53.558Z,9.56
2019-05-16T00:37:52.528Z,9.58
2019-05-16T00:38:52.520Z,9.58
2019-05-16T00:39:52.520Z,9.59
2019-05-16T00:40:52.486Z,9.56
2019-05-16T00:41:52.488Z,9.54
2019-05-16T00:42:52.494Z,9.55
2019-05-16T00:43:52.460Z,9.51
2019-05-16T00:44:52.460Z,9.50
2019-05-16T00:45:52.492Z,9.54
2019-05-16T00:46:52.482Z,9.51
2019-05-16T00:47:52.412Z,9.51
2019-05-16T00:48:52.402Z,9.50
2019-05-16T00:50:00.748Z,9.48
2019-05-16T00:50:52.399Z,9.47
2019-05-16T00:51:52.428Z,9.47
2019-05-16T00:52:52.438Z,9.47
2019-05-16T00:53:52.407Z,9.46
2019-05-16T00:54:52.350Z,9.47
2019-05-16T00:55:52.362Z,9.46
2019-05-16T00:56:52.355Z,9.44
2019-05-16T00:57:52.318Z,9.41
2019-05-16T00:58:52.343Z,9.40
2019-05-16T00:59:52.405Z,9.40
2019-05-16T01:00:52.332Z,9.41
2019-05-16T01:01:52.307Z,9.44
2019-05-16T01:02:52.265Z,9.41
2019-05-16T01:03:52.430Z,9.41
2019-05-16T01:04:52.254Z,9.43
2019-05-16T01:05:52.222Z,9.44
2019-05-16T01:06:52.267Z,9.43
2019-05-16T01:07:52.255Z,9.36
2019-05-16T01:08:52.268Z,9.36
2019-05-16T01:09:52.362Z,9.36
2019-05-16T01:10:52.392Z,9.36
2019-05-16T01:11:52.216Z,9.34
2019-05-16T01:12:52.202Z,9.31
2019-05-16T01:13:52.181Z,9.31
2019-05-16T01:14:52.128Z,9.31
2019-05-16T01:15:52.147Z,9.31
2019-05-16T01:16:52.149Z,9.29
2019-05-16T01:17:52.135Z,9.26
2019-05-16T01:18:52.114Z,9.22
2019-05-16T01:19:52.221Z,9.23
2019-05-16T01:20:52.109Z,9.23
2019-05-16T01:21:52.130Z,9.23
2019-05-16T01:22:52.110Z,9.23
2019-05-16T01:23:52.066Z,9.23
2019-05-16T01:24:52.053Z,9.25
2019-05-16T01:25:52.095Z,9.23
2019-05-16T01:26:52.030Z,9.23
2019-05-16T01:27:52.053Z,9.22
2019-05-16T01:28:52.071Z,9.21
2019-05-16T01:29:52.025Z,9.16
2019-05-16T01:30:51.995Z,9.14
2019-05-16T01:31:52.087Z,9.14
2019-05-16T01:32:51.991Z,9.11
2019-05-16T01:33:51.995Z,9.11
2019-05-16T01:34:51.983Z,9.10
2019-05-16T01:35:51.941Z,9.06
2019-05-16T01:36:51.993Z,9.03
2019-05-16T01:37:51.943Z,9.03
2019-05-16T01:38:51.946Z,8.95
2019-05-16T01:39:51.891Z,8.92
2019-05-16T01:40:51.913Z,8.89
2019-05-16T01:41:51.891Z,8.87
2019-05-16T01:42:51.839Z,8.85
2019-05-16T01:43:51.855Z,8.82
2019-05-16T01:44:51.879Z,8.84
2019-05-16T01:45:51.833Z,8.81
2019-05-16T01:46:51.869Z,8.76
2019-05-16T01:47:51.871Z,8.73
2019-05-16T01:48:51.817Z,8.73
2019-05-16T01:49:51.829Z,8.76
2019-05-16T01:50:51.805Z,8.74
2019-05-16T01:51:51.795Z,8.79
2019-05-16T01:52:51.797Z,8.74
2019-05-16T01:53:51.759Z,8.76
2019-05-16T01:54:51.758Z,8.74
2019-05-16T01:55:51.698Z,8.73
2019-05-16T01:56:51.769Z,8.73
2019-05-16T01:57:51.747Z,8.70
2019-05-16T01:58:51.701Z,8.71
2019-05-16T01:59:51.696Z,8.74
2019-05-16T02:01:01.987Z,8.71
2019-05-16T02:01:52.649Z,8.69
2019-05-16T02:02:51.627Z,8.69
2019-05-16T02:03:51.665Z,8.69
2019-05-16T02:04:51.593Z,8.67
2019-05-16T02:05:51.613Z,8.70
2019-05-16T02:06:54.834Z,8.70
2019-05-16T02:07:51.693Z,8.64
2019-05-16T02:08:51.605Z,8.66
2019-05-16T02:09:51.612Z,8.63
2019-05-16T02:10:51.593Z,8.58
2019-05-16T02:11:51.542Z,8.55
2019-05-16T02:12:51.519Z,8.52
2019-05-16T02:13:51.639Z,8.53
2019-05-16T02:14:51.532Z,8.52
2019-05-16T02:15:51.531Z,8.51
2019-05-16T02:16:51.586Z,8.53
2019-05-16T02:17:51.491Z,8.53
2019-05-16T02:18:51.678Z,8.52
2019-05-16T02:19:51.673Z,8.49
2019-05-16T02:20:51.549Z,8.46
2019-05-16T02:21:51.568Z,8.49
2019-05-16T02:22:51.526Z,8.49
2019-05-16T02:23:51.731Z,8.49
2019-05-16T02:24:51.515Z,8.48
2019-05-16T02:25:51.696Z,8.48
2019-05-16T02:26:52.356Z,8.48
2019-05-16T02:27:51.345Z,8.49
2019-05-16T02:28:51.380Z,8.48
2019-05-16T02:29:51.349Z,8.42
2019-05-16T02:30:51.922Z,8.42
2019-05-16T02:31:51.582Z,8.38
2019-05-16T02:32:52.338Z,8.38
2019-05-16T02:33:51.430Z,8.37
2019-05-16T02:34:51.512Z,8.38
2019-05-16T02:35:55.366Z,8.34
2019-05-16T02:37:10.364Z,8.34
2019-05-16T02:37:55.173Z,8.31
2019-05-16T02:38:55.447Z,8.30
2019-05-16T02:39:54.448Z,8.33
2019-05-16T02:40:55.148Z,8.30
2019-05-16T02:41:52.026Z,8.33
2019-05-16T02:42:51.621Z,8.34
2019-05-16T02:43:51.205Z,8.36
2019-05-16T02:44:51.385Z,8.37
2019-05-16T02:45:51.961Z,8.34
2019-05-16T02:46:51.192Z,8.33
2019-05-16T02:47:51.460Z,8.34
2019-05-16T02:48:51.879Z,8.36
2019-05-16T02:49:51.173Z,8.34
2019-05-16T02:50:51.666Z,8.34
2019-05-16T02:51:51.363Z,8.36
2019-05-16T02:52:51.930Z,8.38
2019-05-16T02:53:51.370Z,8.38
2019-05-16T02:54:53.631Z,8.37
2019-05-16T02:55:51.796Z,8.42
2019-05-16T02:56:51.173Z,8.41
2019-05-16T02:57:51.233Z,8.37
2019-05-16T02:58:52.050Z,8.37
2019-05-16T02:59:51.239Z,8.38
2019-05-16T03:00:51.559Z,8.33
2019-05-16T03:01:52.185Z,8.33
2019-05-16T03:02:51.077Z,8.34
2019-05-16T03:03:51.706Z,8.33
2019-05-16T03:04:51.937Z,8.31
2019-05-16T03:05:51.253Z,8.30
2019-05-16T03:06:51.361Z,8.28
2019-05-16T03:07:52.063Z,8.30
2019-05-16T03:08:50.968Z,8.28
2019-05-16T03:09:51.509Z,8.27
2019-05-16T03:10:51.988Z,8.26
2019-05-16T03:11:51.062Z,8.26
2019-05-16T03:12:51.402Z,8.24
2019-05-16T03:13:51.443Z,8.24
2019-05-16T03:14:54.493Z,8.20
2019-05-16T03:15:51.106Z,8.18
2019-05-16T03:16:50.834Z,8.16
2019-05-16T03:17:50.954Z,8.18
2019-05-16T03:18:51.647Z,8.15
2019-05-16T03:19:51.191Z,8.15
2019-05-16T03:20:51.177Z,8.18
2019-05-16T03:21:51.005Z,8.18
2019-05-16T03:22:52.001Z,8.16
2019-05-16T03:23:50.891Z,8.16
2019-05-16T03:24:51.563Z,8.18
2019-05-16T03:25:50.917Z,8.18
2019-05-16T03:26:51.447Z,8.18
2019-05-16T03:27:51.315Z,8.16
2019-05-16T03:28:52.090Z,8.16
2019-05-16T03:29:50.831Z,8.15
2019-05-16T03:30:54.767Z,8.12
2019-05-16T03:31:54.171Z,8.12
2019-05-16T03:32:54.770Z,8.13
2019-05-16T03:33:58.876Z,8.08
2019-05-16T03:34:54.708Z,8.08
2019-05-16T03:35:54.442Z,8.10
2019-05-16T03:36:54.505Z,8.12
2019-05-16T03:37:57.051Z,8.12
2019-05-16T03:38:51.676Z,8.12
2019-05-16T03:39:51.407Z,8.13
2019-05-16T03:40:51.198Z,8.13
2019-05-16T03:41:50.759Z,8.13
2019-05-16T03:42:51.812Z,8.13
2019-05-16T03:43:50.901Z,8.15
2019-05-16T03:44:51.246Z,8.12
2019-05-16T03:45:52.128Z,8.13
2019-05-16T03:46:51.823Z,8.15
2019-05-16T03:47:51.274Z,8.15
2019-05-16T03:48:52.000Z,8.13
2019-05-16T03:49:51.803Z,8.18
2019-05-16T03:50:51.042Z,8.19
2019-05-16T03:51:50.669Z,8.19
2019-05-16T03:52:50.969Z,8.18
2019-05-16T03:53:50.806Z,8.19
2019-05-16T03:54:50.803Z,8.23
2019-05-16T03:55:51.740Z,8.24
2019-05-16T03:56:51.379Z,8.24
2019-05-16T03:57:51.596Z,8.28
2019-05-16T03:58:51.016Z,8.28
2019-05-16T03:59:51.790Z,8.28
2019-05-16T04:00:52.180Z,8.31
2019-05-16T04:01:51.112Z,8.31
2019-05-16T04:02:52.262Z,8.30
2019-05-16T04:03:51.330Z,8.31
2019-05-16T04:04:51.057Z,8.31
2019-05-16T04:05:52.681Z,8.33
2019-05-16T04:06:50.758Z,8.36
2019-05-16T04:07:53.035Z,8.34
2019-05-16T04:08:51.349Z,8.33
2019-05-16T04:09:50.765Z,8.37
2019-05-16T04:10:52.134Z,8.41
2019-05-16T04:11:51.024Z,8.41
2019-05-16T04:12:51.358Z,8.42
2019-05-16T04:13:50.877Z,8.37
2019-05-16T04:14:51.230Z,8.36
2019-05-16T04:15:52.536Z,8.34
2019-05-16T04:16:51.032Z,8.33
2019-05-16T04:17:51.230Z,8.33
2019-05-16T04:18:51.439Z,8.31
2019-05-16T04:19:51.016Z,8.34
2019-05-16T04:20:52.273Z,8.34
2019-05-16T04:21:51.150Z,8.38
2019-05-16T04:22:51.296Z,8.38
2019-05-16T04:23:50.680Z,8.41
2019-05-16T04:24:51.254Z,8.44
2019-05-16T04:25:52.212Z,8.41
2019-05-16T04:26:51.656Z,8.37
2019-05-16T04:27:50.306Z,8.36
2019-05-16T04:28:51.385Z,8.36
2019-05-16T04:29:51.360Z,8.34
2019-05-16T04:30:50.882Z,8.33
2019-05-16T04:31:50.841Z,8.33
2019-05-16T04:32:51.036Z,8.33
2019-05-16T04:33:51.601Z,8.31
2019-05-16T04:34:51.097Z,8.33
2019-05-16T04:35:52.513Z,8.31
2019-05-16T04:36:51.400Z,8.37
2019-05-16T04:37:51.297Z,8.42
2019-05-16T04:38:51.269Z,8.44
2019-05-16T04:39:50.665Z,8.46
2019-05-16T04:40:51.541Z,8.51
2019-05-16T04:41:50.872Z,8.53
2019-05-16T04:42:51.258Z,8.53
2019-05-16T04:43:50.706Z,8.58
2019-05-16T04:44:51.548Z,8.58
2019-05-16T04:45:52.179Z,8.61
2019-05-16T04:46:50.999Z,8.64
2019-05-16T04:47:51.205Z,8.69
2019-05-16T04:48:50.763Z,8.79
2019-05-16T04:49:51.850Z,8.84
2019-05-16T04:50:51.575Z,8.94
2019-05-16T04:51:51.667Z,9.02
2019-05-16T04:52:51.808Z,9.02
2019-05-16T04:53:50.982Z,9.03
2019-05-16T04:54:51.211Z,9.04
2019-05-16T04:55:51.705Z,9.06
2019-05-16T04:56:51.339Z,9.03
2019-05-16T04:57:51.181Z,9.02
2019-05-16T04:58:51.472Z,9.02
2019-05-16T04:59:50.843Z,9.11
2019-05-16T05:00:51.693Z,9.23
2019-05-16T05:01:51.146Z,9.28
2019-05-16T05:02:51.815Z,9.37
2019-05-16T05:04:01.858Z,9.41
2019-05-16T05:04:51.076Z,9.40
2019-05-16T05:05:51.261Z,9.28
2019-05-16T05:06:51.263Z,9.23
2019-05-16T05:07:51.161Z,9.26
2019-05-16T05:08:57.877Z,9.29
2019-05-16T05:09:51.374Z,9.37
2019-05-16T05:10:51.301Z,9.44
2019-05-16T05:11:51.903Z,9.44
2019-05-16T05:12:51.480Z,9.46
2019-05-16T05:13:50.584Z,9.44
2019-05-16T05:14:51.033Z,9.37
2019-05-16T05:15:50.972Z,9.40
2019-05-16T05:16:50.714Z,9.43
2019-05-16T05:17:50.292Z,9.40
2019-05-16T05:18:51.513Z,9.44
2019-05-16T05:19:50.672Z,9.56
2019-05-16T05:20:52.376Z,9.68
2019-05-16T05:21:51.385Z,9.73
2019-05-16T05:22:50.038Z,9.73
2019-05-16T05:23:50.824Z,9.66
2019-05-16T05:24:50.752Z,9.65
2019-05-16T05:25:51.472Z,9.58
2019-05-16T05:26:50.373Z,9.65
2019-05-16T05:27:50.095Z,9.73
2019-05-16T05:28:50.831Z,9.84
2019-05-16T05:29:50.286Z,9.79
2019-05-16T05:30:50.342Z,9.83
2019-05-16T05:31:54.872Z,9.83
2019-05-16T05:32:50.455Z,9.84
2019-05-16T05:33:50.678Z,9.86
2019-05-16T05:34:50.385Z,9.95
2019-05-16T05:35:50.782Z,10.05
2019-05-16T05:36:51.190Z,10.22
2019-05-16T05:37:50.794Z,10.31
2019-05-16T05:39:06.210Z,10.53
2019-05-16T05:39:50.550Z,10.60
2019-05-16T05:40:51.015Z,10.61
2019-05-16T05:41:50.430Z,10.78
2019-05-16T05:42:50.472Z,10.82
2019-05-16T05:43:50.360Z,10.78
2019-05-16T05:44:50.805Z,10.51
2019-05-16T05:45:51.166Z,10.49
2019-05-16T05:46:51.139Z,10.46
2019-05-16T05:47:50.490Z,10.37
2019-05-16T05:48:50.486Z,10.34
2019-05-16T05:49:49.852Z,10.23
2019-05-16T05:50:50.854Z,10.23
2019-05-16T05:51:50.066Z,10.28
2019-05-16T05:52:51.111Z,10.34
2019-05-16T05:53:50.975Z,10.38
2019-05-16T05:54:50.256Z,10.48
2019-05-16T05:55:51.007Z,10.40
2019-05-16T05:56:50.111Z,10.31
2019-05-16T05:57:50.692Z,10.41
2019-05-16T05:58:51.248Z,10.46
2019-05-16T05:59:49.806Z,10.53
2019-05-16T06:00:52.022Z,10.59
2019-05-16T06:01:51.625Z,10.56
2019-05-16T06:02:50.772Z,10.64
2019-05-16T06:03:50.553Z,10.59
2019-05-16T06:04:50.191Z,10.41
2019-05-16T06:05:50.496Z,10.42
2019-05-16T06:06:50.388Z,10.41
2019-05-16T06:07:50.972Z,10.56
2019-05-16T06:08:50.213Z,10.69
2019-05-16T06:09:55.601Z,10.78
2019-05-16T06:10:50.595Z,10.76
2019-05-16T06:11:50.151Z,10.86
2019-05-16T06:12:50.074Z,11.07
2019-05-16T06:13:49.995Z,11.11
2019-05-16T06:14:50.439Z,11.17
2019-05-16T06:15:51.052Z,11.22
2019-05-16T06:16:50.841Z,11.08
2019-05-16T06:17:50.889Z,10.96
2019-05-16T06:18:50.289Z,11.04
2019-05-16T06:19:49.787Z,11.07
2019-05-16T06:20:51.331Z,11.14
2019-05-16T06:21:50.336Z,10.93
2019-05-16T06:22:50.922Z,10.89
2019-05-16T06:23:50.862Z,10.97
2019-05-16T06:24:50.446Z,10.96
2019-05-16T06:25:50.484Z,10.93
2019-05-16T06:26:50.465Z,10.84
2019-05-16T06:27:51.095Z,10.89
2019-05-16T06:28:50.519Z,10.96
2019-05-16T06:29:49.698Z,11.04
2019-05-16T06:30:51.422Z,10.96
2019-05-16T06:31:49.653Z,10.93
2019-05-16T06:32:50.199Z,10.92
2019-05-16T06:33:50.181Z,10.92
2019-05-16T06:34:50.644Z,10.92
2019-05-16T06:35:51.348Z,10.86
2019-05-16T06:36:50.884Z,10.96
2019-05-16T06:37:49.991Z,11.00
2019-05-16T06:38:49.830Z,11.02
2019-05-16T06:39:50.267Z,11.04
2019-05-16T06:40:49.969Z,11.00
2019-05-16T06:41:50.863Z,10.99
2019-05-16T06:42:50.875Z,11.11
2019-05-16T06:43:50.758Z,11.17
2019-05-16T06:44:50.368Z,11.11
2019-05-16T06:45:51.379Z,11.12
2019-05-16T06:46:59.781Z,11.05
2019-05-16T06:47:50.436Z,10.99
2019-05-16T06:48:50.553Z,10.96
2019-05-16T06:49:50.846Z,10.92
2019-05-16T06:50:56.394Z,10.84
2019-05-16T06:51:48.575Z,10.79
2019-05-16T06:52:50.223Z,10.81
2019-05-16T06:53:50.085Z,10.75
2019-05-16T06:54:50.426Z,10.76
2019-05-16T06:55:49.772Z,10.72
2019-05-16T06:56:51.004Z,10.63
2019-05-16T06:57:50.363Z,10.54
2019-05-16T06:58:51.808Z,10.61
2019-05-16T06:59:49.982Z,10.59
2019-05-16T07:00:51.659Z,10.64
2019-05-16T07:01:50.034Z,10.68
2019-05-16T07:02:49.899Z,10.61
2019-05-16T07:03:50.603Z,10.68
2019-05-16T07:04:50.439Z,10.69
2019-05-16T07:05:50.396Z,10.76
2019-05-16T07:06:58.707Z,10.78
2019-05-16T07:07:50.969Z,10.78
2019-05-16T07:08:50.758Z,10.74
2019-05-16T07:09:58.061Z,10.82
2019-05-16T07:10:50.899Z,10.81
2019-05-16T07:11:50.324Z,10.81
2019-05-16T07:12:50.422Z,10.84
2019-05-16T07:13:51.706Z,10.78
2019-05-16T07:14:50.345Z,10.69
2019-05-16T07:15:50.105Z,10.68
2019-05-16T07:16:49.679Z,10.59
2019-05-16T07:17:50.469Z,10.56
2019-05-16T07:18:50.386Z,10.63
2019-05-16T07:19:50.261Z,10.60
2019-05-16T07:20:50.742Z,10.71
2019-05-16T07:21:56.263Z,10.69
2019-05-16T07:22:50.332Z,10.84
2019-05-16T07:23:50.874Z,10.87
2019-05-16T07:25:00.396Z,10.94
2019-05-16T07:25:50.544Z,10.96
2019-05-16T07:26:50.010Z,11.08
2019-05-16T07:27:51.114Z,11.23
2019-05-16T07:28:51.278Z,11.15
2019-05-16T07:29:50.640Z,11.00
2019-05-16T07:30:50.701Z,11.07
2019-05-16T07:31:52.351Z,11.05
2019-05-16T07:32:52.292Z,11.07
2019-05-16T07:34:05.154Z,11.12
2019-05-16T07:36:00.361Z,11.19
2019-05-16T07:37:00.477Z,11.19
2019-05-16T07:38:00.608Z,11.17
2019-05-16T07:38:59.785Z,11.22
2019-05-16T07:40:08.463Z,11.35
2019-05-16T07:41:00.342Z,11.55
2019-05-16T07:41:59.951Z,11.60
2019-05-16T07:43:00.069Z,11.80
2019-05-16T07:44:00.953Z,11.97
2019-05-16T07:45:00.679Z,12.10
2019-05-16T07:46:00.464Z,12.25
2019-05-16T07:47:01.019Z,12.00
2019-05-16T07:48:00.101Z,11.97
2019-05-16T07:49:01.215Z,11.75
2019-05-16T07:49:59.614Z,11.75
2019-05-16T07:51:00.559Z,11.91
2019-05-16T07:52:00.578Z,11.83
2019-05-16T07:53:00.004Z,11.77
2019-05-16T07:53:59.747Z,11.80
2019-05-16T07:55:00.275Z,11.87
2019-05-16T07:56:00.112Z,11.83
2019-05-16T07:57:11.492Z,11.70
2019-05-16T07:58:00.196Z,11.72
2019-05-16T07:59:00.919Z,11.48
2019-05-16T08:00:00.197Z,11.52
2019-05-16T08:01:04.440Z,11.54
2019-05-16T08:02:00.650Z,11.51
2019-05-16T08:02:59.985Z,11.59
2019-05-16T08:04:00.026Z,11.65
2019-05-16T08:05:00.772Z,11.60
2019-05-16T08:06:01.770Z,11.50
2019-05-16T08:07:00.626Z,11.52
2019-05-16T08:08:00.020Z,11.55
2019-05-16T08:09:00.227Z,11.66
2019-05-16T08:09:59.845Z,11.77
2019-05-16T08:11:01.523Z,11.65
2019-05-16T08:12:01.604Z,11.65
2019-05-16T08:13:03.420Z,11.59
2019-05-16T08:14:01.022Z,11.55
2019-05-16T08:15:00.769Z,11.44
2019-05-16T08:16:01.159Z,11.52
2019-05-16T08:17:01.097Z,11.47
2019-05-16T08:18:03.145Z,11.47
2019-05-16T08:19:00.938Z,11.54
2019-05-16T08:20:00.143Z,11.52
2019-05-16T08:21:00.965Z,11.63
2019-05-16T08:22:01.348Z,11.80
2019-05-16T08:23:00.828Z,11.88
2019-05-16T08:24:05.842Z,11.80
2019-05-16T08:25:00.309Z,11.80
2019-05-16T08:27:01.169Z,11.70
2019-05-16T08:28:01.193Z,11.63
2019-05-16T08:29:02.055Z,11.65
2019-05-16T08:30:02.114Z,11.68
2019-05-16T08:31:00.865Z,11.63
2019-05-16T08:32:02.091Z,11.43
2019-05-16T08:33:02.401Z,11.30
2019-05-16T08:34:00.887Z,11.27
2019-05-16T08:35:00.994Z,11.19
2019-05-16T08:36:02.940Z,11.22
2019-05-16T08:37:01.191Z,11.22
2019-05-16T08:38:01.076Z,11.36
2019-05-16T08:39:01.093Z,11.36
2019-05-16T08:40:00.379Z,11.30
2019-05-16T08:41:08.013Z,11.22
2019-05-16T08:42:07.812Z,11.12
2019-05-16T08:43:00.414Z,11.08
2019-05-16T08:44:01.119Z,11.14
2019-05-16T08:45:01.855Z,11.22
2019-05-16T08:46:01.055Z,11.17
2019-05-16T08:47:05.631Z,11.19
2019-05-16T08:48:00.295Z,11.17
2019-05-16T08:49:01.110Z,11.12
2019-05-16T08:50:00.646Z,11.05
2019-05-16T08:50:05.207Z,11.78
2019-05-16T08:52:01.435Z,10.86
2019-05-16T08:53:02.574Z,10.68
2019-05-16T08:54:01.570Z,10.72
2019-05-16T08:55:03.102Z,10.75
2019-05-16T08:56:02.625Z,10.76
2019-05-16T08:57:16.306Z,10.86
2019-05-16T08:58:02.541Z,10.96
2019-05-16T08:59:01.803Z,10.89
2019-05-16T09:00:01.321Z,10.96
2019-05-16T09:01:02.283Z,10.96
2019-05-16T09:02:03.311Z,10.89
2019-05-16T09:03:01.776Z,10.86
2019-05-16T09:04:01.515Z,10.92
2019-05-16T09:05:04.404Z,11.00
2019-05-16T09:06:02.987Z,11.02
2019-05-16T09:07:01.962Z,11.00
2019-05-16T09:09:10.218Z,10.81
2019-05-16T09:10:00.397Z,10.79
2019-05-16T09:10:30.561Z,11.02
2019-05-16T09:10:41.078Z,10.99
2019-05-16T09:11:02.094Z,10.72
2019-05-16T09:11:59.354Z,10.69
2019-05-16T09:12:58.401Z,10.72
2019-05-16T09:13:58.381Z,10.69
2019-05-16T09:14:59.551Z,10.51
2019-05-16T09:15:58.335Z,10.57
2019-05-16T09:16:58.328Z,10.63
2019-05-16T09:17:58.327Z,10.69
2019-05-16T09:18:58.304Z,10.64
2019-05-16T09:19:58.302Z,10.72
2019-05-16T09:20:58.300Z,10.64
2019-05-16T09:21:58.252Z,10.69
2019-05-16T09:22:58.259Z,10.78
2019-05-16T09:23:58.241Z,10.89
2019-05-16T09:24:58.235Z,10.89
2019-05-16T09:25:58.624Z,11.02
2019-05-16T09:26:58.200Z,11.23
2019-05-16T09:27:58.211Z,11.40
2019-05-16T09:28:58.183Z,11.63
2019-05-16T09:29:58.176Z,11.73
2019-05-16T09:30:58.181Z,11.78
2019-05-16T09:32:09.105Z,11.87
2019-05-16T09:32:59.130Z,12.20
2019-05-16T09:33:58.137Z,12.24
2019-05-16T09:34:58.128Z,12.36
2019-05-16T09:35:58.114Z,12.47
2019-05-16T09:37:01.563Z,12.62
2019-05-16T09:37:58.099Z,12.32
2019-05-16T09:38:58.107Z,12.21
2019-05-16T09:39:58.056Z,12.25
2019-05-16T09:40:58.059Z,12.25
2019-05-16T09:41:58.695Z,12.61
2019-05-16T09:43:07.646Z,12.60
2019-05-16T09:43:58.905Z,12.45
2019-05-16T09:44:58.148Z,12.72
2019-05-16T09:46:03.696Z,12.85
2019-05-16T09:46:58.987Z,12.95
2019-05-16T09:47:58.085Z,12.61
2019-05-16T09:49:15.782Z,12.20
2019-05-16T09:49:58.949Z,12.18
2019-05-16T09:50:58.027Z,12.24
2019-05-16T09:51:57.930Z,12.25
2019-05-16T09:52:57.915Z,12.25
2019-05-16T09:53:57.916Z,11.95
2019-05-16T09:54:57.984Z,11.86
2019-05-16T09:55:57.895Z,11.86
2019-05-16T09:56:57.876Z,11.73
2019-05-16T09:57:58.555Z,11.66
2019-05-16T09:58:57.871Z,11.59
2019-05-16T09:59:57.863Z,11.48
2019-05-16T10:00:57.860Z,11.37
2019-05-16T10:01:57.834Z,11.26
2019-05-16T10:02:58.106Z,11.33
2019-05-16T10:04:06.675Z,11.32
2019-05-16T10:04:58.210Z,11.25
2019-05-16T10:05:57.803Z,11.23
2019-05-16T10:06:57.759Z,11.08
2019-05-16T10:07:57.752Z,11.04
2019-05-16T10:08:57.749Z,11.11
2019-05-16T10:09:57.730Z,10.96
2019-05-16T10:10:57.721Z,11.11
2019-05-16T10:12:08.149Z,11.26
2019-05-16T10:12:58.689Z,11.23
2019-05-16T10:13:57.699Z,11.26
2019-05-16T10:14:59.677Z,11.18
2019-05-16T10:15:57.673Z,11.27
2019-05-16T10:16:57.975Z,11.25
2019-05-16T10:17:57.714Z,11.17
2019-05-16T10:18:57.701Z,11.29
2019-05-16T10:20:00.105Z,11.33
2019-05-16T10:20:59.377Z,11.33
2019-05-16T10:22:00.159Z,11.25
2019-05-16T10:22:58.081Z,11.29
2019-05-16T10:23:57.599Z,11.44
2019-05-16T10:24:57.754Z,11.35
